GRZ510 Details

Departure: Denver International Airport (KDEN)
Arrival: Ted Stevens Anchorage International Airport (PANC)
Route: RIKKK4 FISAR BIL J13 GTF J569 DORSE 52N20 RIBIT AKTEX 59N40 JOH WITTI4


Current Weather Information
KDEN 230753Z 28006KT 10SM FEW110 FEW220 10/M05 A2994 RMK AO2 SLP088 T01001050
PANC 230753Z 28009KT 10SM SCT065 OVC110 04/01 A2968 RMK AO2 SLP052 T00390006